リオデジャネイロ/サントス・デュモン の空港の天気 - METARとTAF

サントス・デュモン空港 ( SBRJ / SDU ) - ブラジル リオデジャネイロ州リオデジャネイロ市
飛行場実況気象(Metar)
観測時間12/01 21:20 BRST (12/01 23:20 UTC)
風向・風速北 3m/s
視程10km以上
天気現象弱い雨
少しの雲 雲底高度 910m
全天の8割程度の雲 雲底高度 1520m
気温25℃
湿度89%
気圧1012hPa
METARSBRJ 012320Z 35005KT 9999 -RA FEW030 BKN050 25/23 Q1012
過去の天気等 Google飛行場航空写真 Wunderground天気予報

過去48時間のMETAR

飛行場予報(TAF)
発表時間: 12/01 13:00 BRST (12/01 15:00 UTC)
予報対象時間: 1日16時 BRST ~ 2日4時 BRST
風向・風速南南西 5m/s
視程8000m
少しの塔状積雲 雲底高度 760m
1日18時 BRST から 確率 40% で
風向・風速南南西 5m/s
天気現象
全天の4割程度の雲 雲底高度 610m
少しの積乱雲 雲底高度 760m
2日0時 BRST から 確率 30% で
視程5000m
天気現象
全天の4割程度の雲 雲底高度 300m
全天の8割程度の雲 雲底高度 910m
TAF SBRJ 011500Z 0118/0206 20010KT 8000 FEW025TCU TX29/0118Z TN25/0202Z
PROB40 0120/0122 21010KT TS SCT020 FEW025CB
PROB30 0202/0206 5000 RA SCT010 BKN030 RMK PHD